createdAt,value
2022-10-11T00:00:07.579Z,124.78
2022-10-11T00:03:10.842Z,101.32
2022-10-11T00:06:14.974Z,127.90
2022-10-11T00:09:18.617Z,115.72
2022-10-11T00:12:22.322Z,101.38
2022-10-11T00:15:26.628Z,121.35
2022-10-11T00:18:29.610Z,120.32
2022-10-11T00:21:33.521Z,128.83
2022-10-11T00:24:36.541Z,140.27
2022-10-11T00:27:41.050Z,136.80
2022-10-11T00:30:44.789Z,141.95
2022-10-11T00:33:49.134Z,125.18
2022-10-11T00:36:52.333Z,115.93
2022-10-11T00:39:55.482Z,109.83
2022-10-11T00:42:59.250Z,89.90
2022-10-11T00:46:14.557Z,117.15
2022-10-11T00:49:24.153Z,90.97
2022-10-11T00:52:39.376Z,72.13
2022-10-11T00:56:06.447Z,74.50
2022-10-11T00:59:15.625Z,67.20
2022-10-11T01:02:20.247Z,66.53
2022-10-11T01:05:31.693Z,64.00
2022-10-11T01:08:35.111Z,84.53
2022-10-11T01:11:42.422Z,63.40
2022-10-11T01:15:03.627Z,57.42
2022-10-11T01:18:10.241Z,67.38
2022-10-11T01:21:23.947Z,57.95
2022-10-11T01:24:54.328Z,62.57
2022-10-11T01:28:09.960Z,68.23
2022-10-11T01:31:22.085Z,59.33
2022-10-11T01:35:00.732Z,56.08
2022-10-11T01:38:14.067Z,52.45
2022-10-11T01:41:28.329Z,60.90
2022-10-11T01:44:35.163Z,53.13
2022-10-11T01:47:39.591Z,67.43
2022-10-11T01:50:47.963Z,63.17
2022-10-11T01:54:03.625Z,50.42
2022-10-11T01:57:23.818Z,66.90
2022-10-11T02:00:33.672Z,52.13
2022-10-11T02:03:51.903Z,53.33
2022-10-11T02:07:12.334Z,51.90
2022-10-11T02:10:45.703Z,59.42
2022-10-11T02:13:59.424Z,62.47
2022-10-11T02:17:09.061Z,56.13
2022-10-11T02:20:18.643Z,59.92
2022-10-11T02:23:27.615Z,58.47
2022-10-11T02:26:33.805Z,77.43
2022-10-11T02:29:40.694Z,55.93
2022-10-11T02:32:47.334Z,82.17
2022-10-11T02:36:06.971Z,61.28
2022-10-11T02:39:43.114Z,45.85
2022-10-11T02:43:00.213Z,60.97
2022-10-11T02:46:04.839Z,49.50
2022-10-11T02:49:09.217Z,46.43
2022-10-11T02:52:12.086Z,38.15
2022-10-11T02:55:15.990Z,28.27
2022-10-11T02:58:20.518Z,35.90
2022-10-11T03:01:23.853Z,36.60
2022-10-11T03:04:27.560Z,28.87
2022-10-11T03:07:31.509Z,34.22
2022-10-11T03:10:35.933Z,32.45
2022-10-11T03:13:39.928Z,47.72
2022-10-11T03:16:43.460Z,34.73
2022-10-11T03:19:46.701Z,52.10
2022-10-11T03:22:50.393Z,51.35
2022-10-11T03:25:54.343Z,46.75
2022-10-11T03:28:57.972Z,36.17
2022-10-11T03:32:01.279Z,41.20
2022-10-11T03:35:04.869Z,45.50
2022-10-11T03:38:12.244Z,34.63
2022-10-11T03:41:16.225Z,44.92
2022-10-11T03:44:19.128Z,34.33
2022-10-11T03:47:23.065Z,33.00
2022-10-11T03:50:26.883Z,42.43
2022-10-11T03:53:30.407Z,32.47
2022-10-11T03:56:33.964Z,41.08
2022-10-11T03:59:37.526Z,37.90
2022-10-11T04:02:40.706Z,37.20
2022-10-11T04:05:44.186Z,33.57
2022-10-11T04:08:47.750Z,41.45
2022-10-11T04:11:51.654Z,42.45
2022-10-11T04:14:54.643Z,52.47
2022-10-11T04:17:57.857Z,68.70
2022-10-11T04:21:00.767Z,83.63
2022-10-11T04:24:04.195Z,83.85
2022-10-11T04:27:07.053Z,77.55
2022-10-11T04:30:11.134Z,79.82
2022-10-11T04:33:15.107Z,77.80
2022-10-11T04:36:19.062Z,54.43
2022-10-11T04:39:22.574Z,63.28
2022-10-11T04:42:26.272Z,55.85
2022-10-11T04:45:29.133Z,64.70
2022-10-11T04:48:32.961Z,58.97
2022-10-11T04:51:36.536Z,60.37
2022-10-11T04:54:40.507Z,54.50
2022-10-11T04:57:43.948Z,58.65
2022-10-11T05:00:48.008Z,76.57
2022-10-11T05:03:52.083Z,77.57
2022-10-11T05:06:56.568Z,58.67
2022-10-11T05:10:00.504Z,64.25
2022-10-11T05:13:03.831Z,54.25
2022-10-11T05:16:10.773Z,54.60
2022-10-11T05:19:14.662Z,61.20
2022-10-11T05:22:17.525Z,50.63
2022-10-11T05:25:21.381Z,49.35
2022-10-11T05:28:25.019Z,48.00
2022-10-11T05:31:28.031Z,34.13
2022-10-11T05:34:31.599Z,24.53
2022-10-11T05:37:35.190Z,29.47
2022-10-11T05:40:40.446Z,27.23
2022-10-11T05:43:45.210Z,25.63
2022-10-11T05:46:48.502Z,33.17
2022-10-11T05:49:52.090Z,19.47
2022-10-11T05:52:56.970Z,17.80
2022-10-11T05:56:01.025Z,20.63
2022-10-11T05:59:06.437Z,20.27
2022-10-11T06:02:13.403Z,20.92
2022-10-11T06:05:17.001Z,18.60
2022-10-11T06:08:20.594Z,19.00
2022-10-11T06:11:28.197Z,20.77
2022-10-11T06:14:32.083Z,22.80
2022-10-11T06:17:35.617Z,18.30
2022-10-11T06:20:38.499Z,14.47
2022-10-11T06:23:41.841Z,13.30
2022-10-11T06:26:44.726Z,12.68
2022-10-11T06:29:48.678Z,13.85
2022-10-11T06:32:52.248Z,9.88
2022-10-11T06:36:01.775Z,8.30
2022-10-11T06:39:05.514Z,15.90
2022-10-11T06:42:08.813Z,8.85
2022-10-11T06:45:12.299Z,10.10
2022-10-11T06:48:16.132Z,9.80
2022-10-11T06:51:21.409Z,15.37
2022-10-11T06:54:25.203Z,10.37
2022-10-11T06:57:29.766Z,10.35
2022-10-11T07:00:33.055Z,11.90
2022-10-11T07:03:37.219Z,10.65
2022-10-11T07:06:42.157Z,19.00
2022-10-11T07:09:45.740Z,14.50
2022-10-11T07:12:49.655Z,13.55
2022-10-11T07:15:53.158Z,13.63
2022-10-11T07:19:01.240Z,20.33
2022-10-11T07:22:05.208Z,14.27
2022-10-11T07:25:08.844Z,16.33
2022-10-11T07:28:13.256Z,17.13
2022-10-11T07:31:20.428Z,15.65
2022-10-11T07:34:23.566Z,17.88
2022-10-11T07:37:27.561Z,17.13
2022-10-11T07:40:30.580Z,13.87
2022-10-11T07:43:35.079Z,20.77
2022-10-11T07:46:38.651Z,23.80
2022-10-11T07:49:41.555Z,17.63
2022-10-11T07:52:45.127Z,15.30
2022-10-11T07:55:48.756Z,12.10
2022-10-11T07:58:55.120Z,17.40
2022-10-11T08:01:58.679Z,19.60
2022-10-11T08:05:01.685Z,14.00
2022-10-11T08:08:05.596Z,21.47
2022-10-11T08:11:09.273Z,10.90
2022-10-11T08:14:12.359Z,8.80
2022-10-11T08:17:16.417Z,14.48
2022-10-11T08:20:19.435Z,11.98
2022-10-11T08:23:23.564Z,22.50
2022-10-11T08:26:26.500Z,29.90
2022-10-11T08:29:30.281Z,16.02
2022-10-11T08:32:33.695Z,18.20
2022-10-11T08:35:37.766Z,32.00
2022-10-11T08:38:42.154Z,26.87
2022-10-11T08:41:56.428Z,14.93
2022-10-11T08:45:12.289Z,21.77
2022-10-11T08:48:21.444Z,43.75
2022-10-11T08:52:02.943Z,21.98
2022-10-11T08:55:18.383Z,19.13
2022-10-11T08:58:38.074Z,17.70
2022-10-11T09:01:50.214Z,16.98
2022-10-11T09:04:56.294Z,17.98
2022-10-11T09:08:19.967Z,22.77
2022-10-11T09:11:53.242Z,38.07
2022-10-11T09:15:18.276Z,210.27
2022-10-11T09:18:49.183Z,87.68
2022-10-11T09:22:17.709Z,95.45
2022-10-11T09:25:42.156Z,72.97
2022-10-11T09:29:11.304Z,47.27
2022-10-11T09:32:18.266Z,35.00
2022-10-11T09:35:23.877Z,83.70
2022-10-11T09:38:44.058Z,89.28
2022-10-11T09:41:52.964Z,86.43
2022-10-11T09:45:00.606Z,95.47
2022-10-11T09:48:07.552Z,82.37
2022-10-11T09:51:20.869Z,70.15
2022-10-11T09:54:48.989Z,79.65
2022-10-11T09:57:55.789Z,73.53
2022-10-11T10:01:08.220Z,73.93
2022-10-11T10:04:19.664Z,90.40
2022-10-11T10:07:23.823Z,153.68
2022-10-11T10:10:32.859Z,194.88
2022-10-11T10:13:50.641Z,245.07
2022-10-11T10:17:18.019Z,240.43
2022-10-11T10:20:28.532Z,177.00
2022-10-11T10:23:35.451Z,129.45
2022-10-11T10:26:40.468Z,112.15
2022-10-11T10:30:01.236Z,112.85
2022-10-11T10:33:07.844Z,96.67
2022-10-11T10:36:20.305Z,106.17
2022-10-11T10:39:34.615Z,95.88
2022-10-11T10:42:38.910Z,122.10
2022-10-11T10:46:10.587Z,99.35
2022-10-11T10:53:05.509Z,115.27
2022-10-11T10:56:15.553Z,104.85
2022-10-11T10:59:36.726Z,143.05
2022-10-11T11:02:58.219Z,115.28
2022-10-11T11:06:06.988Z,106.13
2022-10-11T11:09:23.824Z,70.93
2022-10-11T11:12:44.836Z,93.10
2022-10-11T11:16:03.817Z,85.43
2022-10-11T11:19:29.792Z,82.30
2022-10-11T11:22:39.394Z,122.33
2022-10-11T11:26:01.761Z,152.60
2022-10-11T11:29:24.658Z,173.02
2022-10-11T11:32:33.340Z,205.27
2022-10-11T11:35:53.692Z,199.35
2022-10-11T11:39:03.609Z,185.77
2022-10-11T11:42:42.510Z,168.73
2022-10-11T11:45:51.558Z,105.93
2022-10-11T11:48:56.665Z,137.85
2022-10-11T11:52:00.561Z,86.43
2022-10-11T11:55:53.859Z,103.77
2022-10-11T11:59:07.373Z,94.73
2022-10-11T12:02:23.389Z,106.63
2022-10-11T12:05:30.925Z,110.88
2022-10-11T12:08:36.519Z,81.50
2022-10-11T12:11:56.284Z,114.07
2022-10-11T12:15:26.679Z,98.13
2022-10-11T12:18:31.419Z,106.45
2022-10-11T12:21:39.714Z,109.70
2022-10-11T12:24:56.313Z,82.60
2022-10-11T12:28:01.277Z,77.87
2022-10-11T12:31:06.653Z,108.87
2022-10-11T12:34:10.359Z,80.60
2022-10-11T12:37:54.310Z,122.25
2022-10-11T12:41:18.737Z,111.65
2022-10-11T12:44:29.340Z,103.80
2022-10-11T12:47:47.429Z,111.20
2022-10-11T12:51:05.786Z,117.97
2022-10-11T12:54:37.399Z,96.20
2022-10-11T12:58:04.762Z,75.68
2022-10-11T13:01:11.526Z,55.70
2022-10-11T13:04:19.692Z,50.13
2022-10-11T13:07:24.485Z,36.78
2022-10-11T13:10:48.017Z,49.28
2022-10-11T13:14:14.370Z,40.85
2022-10-11T13:17:27.254Z,50.37
2022-10-11T13:20:37.507Z,66.17
2022-10-11T13:23:43.309Z,72.72
2022-10-11T13:26:49.488Z,63.95
2022-10-11T13:29:55.548Z,55.38
2022-10-11T13:33:00.691Z,49.07
2022-10-11T13:36:06.969Z,49.43
2022-10-11T13:39:31.333Z,51.90
2022-10-11T13:42:35.706Z,48.65
2022-10-11T13:45:42.393Z,54.95
2022-10-11T13:48:46.300Z,46.43
2022-10-11T13:52:22.160Z,44.60
2022-10-11T13:55:34.526Z,52.53
2022-10-11T13:58:47.218Z,37.67
2022-10-11T14:01:55.228Z,36.13
2022-10-11T14:04:59.365Z,32.67
2022-10-11T14:08:06.588Z,35.00
2022-10-11T14:11:11.351Z,30.73
2022-10-11T14:14:33.639Z,28.40
2022-10-11T14:17:43.591Z,29.02
2022-10-11T14:20:47.270Z,29.77
2022-10-11T14:23:59.450Z,32.03
2022-10-11T14:27:06.522Z,31.35
2022-10-11T14:30:25.430Z,25.52
2022-10-11T14:33:30.040Z,27.45
2022-10-11T14:36:33.704Z,26.70
2022-10-11T14:39:37.412Z,31.10
2022-10-11T14:42:42.777Z,22.98
2022-10-11T14:45:46.399Z,19.27
2022-10-11T14:48:55.660Z,17.65
2022-10-11T14:52:00.702Z,17.23
2022-10-11T14:55:04.476Z,22.60
2022-10-11T14:58:09.700Z,20.33
2022-10-11T15:01:18.002Z,18.73
2022-10-11T15:04:26.707Z,13.65
2022-10-11T15:07:31.443Z,13.80
2022-10-11T15:10:40.669Z,21.47
2022-10-11T15:13:44.682Z,21.45
2022-10-11T15:16:48.441Z,17.75
2022-10-11T15:19:52.069Z,13.25
2022-10-11T15:22:57.323Z,11.93
2022-10-11T15:26:00.920Z,12.53
2022-10-11T15:29:05.445Z,12.77
2022-10-11T15:32:08.326Z,15.55
2022-10-11T15:35:12.930Z,18.13
2022-10-11T15:38:19.187Z,12.00
2022-10-11T15:41:24.798Z,13.83
2022-10-11T15:44:28.487Z,13.43
2022-10-11T15:47:32.337Z,11.40
2022-10-11T15:50:37.979Z,8.82
2022-10-11T15:53:41.547Z,11.60
2022-10-11T15:56:45.272Z,8.23
2022-10-11T15:59:49.162Z,10.93
2022-10-11T16:02:58.980Z,10.93
2022-10-11T16:06:05.529Z,14.00
2022-10-11T16:09:09.330Z,15.37
2022-10-11T16:12:13.014Z,9.97
2022-10-11T16:15:16.916Z,13.50
2022-10-11T16:18:21.925Z,14.43
2022-10-11T16:21:25.661Z,15.82
2022-10-11T16:24:29.725Z,14.37
2022-10-11T16:27:34.551Z,10.77
2022-10-11T16:30:44.737Z,12.60
2022-10-11T16:33:50.720Z,9.65
2022-10-11T16:36:54.665Z,10.70
2022-10-11T16:39:58.282Z,10.97
2022-10-11T16:43:07.986Z,9.63
2022-10-11T16:46:11.657Z,11.15
2022-10-11T16:49:25.659Z,13.18
2022-10-11T16:52:29.646Z,19.08
2022-10-11T16:55:33.429Z,19.77
2022-10-11T16:58:37.281Z,15.17
2022-10-11T17:01:40.929Z,15.43
2022-10-11T17:04:44.087Z,13.82
2022-10-11T17:07:48.110Z,12.80
2022-10-11T17:10:57.706Z,13.77
2022-10-11T17:14:02.593Z,15.77
2022-10-11T17:17:09.189Z,15.88
2022-10-11T17:20:13.204Z,17.83
2022-10-11T17:23:16.922Z,8.13
2022-10-11T17:26:25.776Z,10.33
2022-10-11T17:29:29.377Z,8.53
2022-10-11T17:32:33.330Z,8.93
2022-10-11T17:35:37.076Z,8.90
2022-10-11T17:38:40.946Z,8.27
2022-10-11T17:41:45.398Z,10.13
2022-10-11T17:44:49.261Z,8.23
2022-10-11T17:47:52.882Z,11.13
2022-10-11T17:50:56.963Z,8.90
2022-10-11T17:54:00.712Z,5.07
2022-10-11T17:57:04.666Z,6.03
2022-10-11T18:00:09.106Z,5.43
2022-10-11T18:03:13.086Z,6.20
2022-10-11T18:06:16.668Z,6.55
2022-10-11T18:09:21.750Z,4.22
2022-10-11T18:12:26.541Z,3.70
2022-10-11T18:15:33.894Z,3.43
2022-10-11T18:18:37.544Z,5.95
2022-10-11T18:21:41.040Z,2.70
2022-10-11T18:24:44.683Z,5.93
2022-10-11T18:27:48.585Z,5.70
2022-10-11T18:30:53.665Z,6.17
2022-10-11T18:33:57.667Z,4.15
2022-10-11T18:37:01.289Z,6.28
2022-10-11T18:40:05.790Z,5.75
2022-10-11T18:43:09.053Z,8.23
2022-10-11T18:46:15.413Z,8.17
2022-10-11T18:49:18.893Z,8.95
2022-10-11T18:52:22.491Z,6.97
2022-10-11T18:55:25.720Z,8.25
2022-10-11T18:58:33.476Z,5.57
2022-10-11T19:01:40.615Z,7.13
2022-10-11T19:04:44.649Z,6.45
2022-10-11T19:07:47.575Z,5.88
2022-10-11T19:10:50.826Z,9.30
2022-10-11T19:13:59.631Z,9.87
2022-10-11T19:17:03.488Z,12.43
2022-10-11T19:20:07.431Z,8.38
2022-10-11T19:23:11.309Z,11.25
2022-10-11T19:26:20.714Z,9.65
2022-10-11T19:29:26.667Z,13.83
2022-10-11T19:32:30.374Z,9.30
2022-10-11T19:35:34.473Z,9.60
2022-10-11T19:38:38.053Z,7.20
2022-10-11T19:41:42.730Z,6.95
2022-10-11T19:44:46.226Z,9.47
2022-10-11T19:47:50.422Z,10.73
2022-10-11T19:51:01.420Z,9.95
2022-10-11T19:54:08.300Z,6.70
2022-10-11T19:57:11.975Z,7.20
2022-10-11T20:00:16.310Z,5.07
2022-10-11T20:03:19.846Z,2.97
2022-10-11T20:06:25.018Z,5.15
2022-10-11T20:09:30.363Z,3.30
2022-10-11T20:12:35.479Z,3.65
2022-10-11T20:15:39.539Z,3.17
2022-10-11T20:18:43.876Z,7.40
2022-10-11T20:21:48.237Z,4.63
2022-10-11T20:24:52.270Z,5.40
2022-10-11T20:27:55.779Z,5.07
2022-10-11T20:31:01.224Z,7.17
2022-10-11T20:34:07.677Z,5.10
2022-10-11T20:37:11.741Z,8.20
2022-10-11T20:40:15.370Z,8.13
2022-10-11T20:43:19.136Z,5.88
2022-10-11T20:46:25.949Z,7.57
2022-10-11T20:49:29.603Z,8.60
2022-10-11T20:52:33.530Z,7.13
2022-10-11T20:55:37.583Z,9.23
2022-10-11T20:58:42.960Z,8.68
2022-10-11T21:01:46.874Z,10.17
2022-10-11T21:04:51.879Z,7.57
2022-10-11T21:07:55.757Z,7.07
2022-10-11T21:10:59.526Z,8.98
2022-10-11T21:14:06.462Z,12.60
2022-10-11T21:17:10.020Z,13.97
2022-10-11T21:20:13.760Z,11.50
2022-10-11T21:23:19.407Z,8.27
2022-10-11T21:26:23.392Z,8.82
2022-10-11T21:29:27.005Z,15.35
2022-10-11T21:32:30.946Z,7.03
2022-10-11T21:35:34.529Z,5.90
2022-10-11T21:38:38.698Z,5.63
2022-10-11T21:41:43.189Z,4.78
2022-10-11T21:44:46.379Z,6.28
2022-10-11T21:47:50.075Z,5.73
2022-10-11T21:50:55.485Z,7.35
2022-10-11T21:54:00.897Z,17.25
2022-10-11T21:57:04.620Z,17.60
2022-10-11T22:00:08.924Z,15.43
2022-10-11T22:03:16.344Z,15.17
2022-10-11T22:06:20.095Z,9.40
2022-10-11T22:09:24.145Z,10.65
2022-10-11T22:12:27.812Z,12.00
2022-10-11T22:15:35.535Z,13.63
2022-10-11T22:18:39.825Z,12.47
2022-10-11T22:21:45.171Z,24.88
2022-10-11T22:24:49.127Z,30.25
2022-10-11T22:27:53.229Z,17.27
2022-10-11T22:30:56.361Z,12.68
2022-10-11T22:34:01.413Z,14.53
2022-10-11T22:37:05.097Z,7.10
2022-10-11T22:40:09.585Z,18.90
2022-10-11T22:43:13.194Z,10.93
2022-10-11T22:46:16.827Z,6.35
2022-10-11T22:49:20.367Z,12.57
2022-10-11T22:52:24.310Z,9.83
2022-10-11T22:55:27.459Z,9.82
2022-10-11T22:58:31.630Z,8.10
2022-10-11T23:01:35.106Z,16.17
2022-10-11T23:04:39.253Z,17.97
2022-10-11T23:07:42.865Z,23.27
2022-10-11T23:10:46.484Z,13.95
2022-10-11T23:13:49.645Z,16.58
2022-10-11T23:16:54.028Z,24.05
2022-10-11T23:19:57.622Z,23.57
2022-10-11T23:23:01.556Z,16.57
2022-10-11T23:26:07.334Z,21.25
2022-10-11T23:29:11.243Z,19.42
2022-10-11T23:32:14.790Z,12.85
2022-10-11T23:35:19.040Z,7.40
2022-10-11T23:38:22.656Z,11.60
2022-10-11T23:41:28.998Z,10.85
2022-10-11T23:44:32.522Z,19.70
2022-10-11T23:47:36.615Z,13.32
2022-10-11T23:50:40.587Z,6.77
2022-10-11T23:53:44.612Z,13.60
2022-10-11T23:56:48.184Z,11.98
2022-10-11T23:59:52.133Z,7.40
